sensor_id;sensor_type;location;lat;lon;timestamp;P1;durP1;ratioP1;P2;durP2;ratioP2
846;SDS011;410;48.954;9.474;2023-02-28T00:00:05;5.65;;;3.38;;
846;SDS011;410;48.954;9.474;2023-02-28T00:02:11;3.55;;;3.08;;
846;SDS011;410;48.954;9.474;2023-02-28T00:04:14;5.47;;;2.90;;
846;SDS011;410;48.954;9.474;2023-02-28T00:06:18;5.80;;;3.63;;
846;SDS011;410;48.954;9.474;2023-02-28T00:08:23;5.18;;;3.60;;
846;SDS011;410;48.954;9.474;2023-02-28T00:10:28;4.53;;;3.60;;
846;SDS011;410;48.954;9.474;2023-02-28T00:12:32;4.75;;;3.15;;
846;SDS011;410;48.954;9.474;2023-02-28T00:14:35;4.80;;;3.45;;
846;SDS011;410;48.954;9.474;2023-02-28T00:16:39;4.85;;;3.50;;
846;SDS011;410;48.954;9.474;2023-02-28T00:18:42;4.93;;;3.85;;
846;SDS011;410;48.954;9.474;2023-02-28T00:20:45;4.95;;;3.65;;
846;SDS011;410;48.954;9.474;2023-02-28T00:22:49;5.45;;;3.65;;
846;SDS011;410;48.954;9.474;2023-02-28T00:24:54;6.10;;;3.90;;
846;SDS011;410;48.954;9.474;2023-02-28T00:26:57;4.82;;;3.60;;
846;SDS011;410;48.954;9.474;2023-02-28T00:29:01;4.80;;;4.30;;
846;SDS011;410;48.954;9.474;2023-02-28T00:31:04;4.57;;;3.45;;
846;SDS011;410;48.954;9.474;2023-02-28T00:33:09;5.93;;;3.97;;
846;SDS011;410;48.954;9.474;2023-02-28T00:35:13;6.25;;;4.32;;
846;SDS011;410;48.954;9.474;2023-02-28T00:37:16;4.47;;;3.67;;
846;SDS011;410;48.954;9.474;2023-02-28T00:39:19;6.70;;;3.92;;
846;SDS011;410;48.954;9.474;2023-02-28T00:41:24;5.20;;;3.65;;
846;SDS011;410;48.954;9.474;2023-02-28T00:43:28;6.05;;;3.80;;
846;SDS011;410;48.954;9.474;2023-02-28T00:45:31;5.60;;;4.00;;
846;SDS011;410;48.954;9.474;2023-02-28T00:47:34;4.57;;;4.10;;
846;SDS011;410;48.954;9.474;2023-02-28T00:49:38;5.43;;;4.32;;
846;SDS011;410;48.954;9.474;2023-02-28T00:51:43;4.88;;;3.90;;
846;SDS011;410;48.954;9.474;2023-02-28T00:53:46;5.15;;;3.80;;
846;SDS011;410;48.954;9.474;2023-02-28T00:55:51;7.32;;;4.50;;
846;SDS011;410;48.954;9.474;2023-02-28T00:57:55;5.15;;;4.15;;
846;SDS011;410;48.954;9.474;2023-02-28T00:59:59;5.40;;;4.15;;
846;SDS011;410;48.954;9.474;2023-02-28T01:02:03;7.68;;;4.10;;
846;SDS011;410;48.954;9.474;2023-02-28T01:04:06;5.07;;;3.80;;
846;SDS011;410;48.954;9.474;2023-02-28T01:06:09;5.63;;;4.20;;
846;SDS011;410;48.954;9.474;2023-02-28T01:08:13;7.93;;;4.68;;
846;SDS011;410;48.954;9.474;2023-02-28T01:10:16;5.72;;;4.10;;
846;SDS011;410;48.954;9.474;2023-02-28T01:12:20;5.05;;;4.13;;
846;SDS011;410;48.954;9.474;2023-02-28T01:14:24;7.30;;;4.78;;
846;SDS011;410;48.954;9.474;2023-02-28T01:16:27;6.70;;;4.55;;
846;SDS011;410;48.954;9.474;2023-02-28T01:18:31;7.53;;;4.60;;
846;SDS011;410;48.954;9.474;2023-02-28T01:20:35;6.90;;;4.80;;
846;SDS011;410;48.954;9.474;2023-02-28T01:22:39;6.03;;;4.20;;
846;SDS011;410;48.954;9.474;2023-02-28T01:24:42;5.55;;;4.28;;
846;SDS011;410;48.954;9.474;2023-02-28T01:26:46;5.70;;;4.15;;
846;SDS011;410;48.954;9.474;2023-02-28T01:28:50;7.90;;;4.43;;
846;SDS011;410;48.954;9.474;2023-02-28T01:30:55;8.32;;;4.72;;
846;SDS011;410;48.954;9.474;2023-02-28T01:33:01;8.93;;;5.35;;
846;SDS011;410;48.954;9.474;2023-02-28T01:35:04;6.47;;;4.32;;
846;SDS011;410;48.954;9.474;2023-02-28T01:37:08;4.95;;;4.25;;
846;SDS011;410;48.954;9.474;2023-02-28T01:39:11;5.32;;;4.10;;
846;SDS011;410;48.954;9.474;2023-02-28T01:41:16;5.10;;;4.18;;
846;SDS011;410;48.954;9.474;2023-02-28T01:43:21;6.40;;;4.50;;
846;SDS011;410;48.954;9.474;2023-02-28T01:45:26;5.03;;;4.45;;
846;SDS011;410;48.954;9.474;2023-02-28T01:47:32;8.75;;;4.25;;
846;SDS011;410;48.954;9.474;2023-02-28T01:49:36;7.63;;;4.97;;
846;SDS011;410;48.954;9.474;2023-02-28T01:51:41;9.30;;;4.65;;
846;SDS011;410;48.954;9.474;2023-02-28T01:53:52;7.55;;;5.10;;
846;SDS011;410;48.954;9.474;2023-02-28T01:55:57;8.43;;;4.88;;
846;SDS011;410;48.954;9.474;2023-02-28T01:58:02;7.95;;;4.65;;
846;SDS011;410;48.954;9.474;2023-02-28T02:00:07;6.10;;;4.13;;
846;SDS011;410;48.954;9.474;2023-02-28T02:02:14;5.53;;;4.40;;
846;SDS011;410;48.954;9.474;2023-02-28T02:04:22;5.85;;;4.32;;
846;SDS011;410;48.954;9.474;2023-02-28T02:06:28;5.40;;;4.30;;
846;SDS011;410;48.954;9.474;2023-02-28T02:08:33;6.80;;;4.72;;
846;SDS011;410;48.954;9.474;2023-02-28T02:10:38;5.80;;;4.75;;
846;SDS011;410;48.954;9.474;2023-02-28T02:12:47;5.93;;;4.78;;
846;SDS011;410;48.954;9.474;2023-02-28T02:15:00;6.55;;;4.90;;
846;SDS011;410;48.954;9.474;2023-02-28T02:17:15;7.63;;;5.15;;
846;SDS011;410;48.954;9.474;2023-02-28T02:22:13;4.97;;;4.32;;
846;SDS011;410;48.954;9.474;2023-02-28T02:27:06;6.38;;;4.90;;
846;SDS011;410;48.954;9.474;2023-02-28T02:32:14;5.03;;;4.53;;
846;SDS011;410;48.954;9.474;2023-02-28T02:34:44;6.75;;;5.00;;
846;SDS011;410;48.954;9.474;2023-02-28T02:36:57;7.68;;;5.10;;
846;SDS011;410;48.954;9.474;2023-02-28T02:39:06;7.22;;;4.95;;
846;SDS011;410;48.954;9.474;2023-02-28T02:41:18;5.25;;;4.75;;
846;SDS011;410;48.954;9.474;2023-02-28T02:43:25;5.75;;;4.65;;
846;SDS011;410;48.954;9.474;2023-02-28T02:45:32;6.47;;;5.30;;
846;SDS011;410;48.954;9.474;2023-02-28T02:47:37;5.88;;;4.72;;
846;SDS011;410;48.954;9.474;2023-02-28T02:49:42;7.95;;;5.25;;
846;SDS011;410;48.954;9.474;2023-02-28T02:51:49;6.13;;;5.18;;
846;SDS011;410;48.954;9.474;2023-02-28T02:53:54;7.15;;;4.82;;
846;SDS011;410;48.954;9.474;2023-02-28T02:56:02;8.80;;;5.32;;
846;SDS011;410;48.954;9.474;2023-02-28T02:58:07;5.97;;;4.68;;
846;SDS011;410;48.954;9.474;2023-02-28T03:00:12;6.10;;;4.57;;
846;SDS011;410;48.954;9.474;2023-02-28T03:02:17;7.50;;;5.40;;
846;SDS011;410;48.954;9.474;2023-02-28T03:04:21;7.00;;;5.25;;
846;SDS011;410;48.954;9.474;2023-02-28T03:06:27;10.00;;;5.70;;
846;SDS011;410;48.954;9.474;2023-02-28T03:08:34;6.97;;;4.97;;
846;SDS011;410;48.954;9.474;2023-02-28T03:10:39;7.30;;;5.10;;
846;SDS011;410;48.954;9.474;2023-02-28T03:12:45;8.65;;;5.10;;
846;SDS011;410;48.954;9.474;2023-02-28T03:15:00;8.00;;;4.97;;
846;SDS011;410;48.954;9.474;2023-02-28T03:17:20;6.70;;;4.95;;
846;SDS011;410;48.954;9.474;2023-02-28T03:19:42;7.88;;;4.65;;
846;SDS011;410;48.954;9.474;2023-02-28T03:21:53;8.05;;;5.20;;
846;SDS011;410;48.954;9.474;2023-02-28T03:24:04;6.10;;;5.03;;
846;SDS011;410;48.954;9.474;2023-02-28T03:26:12;6.68;;;5.30;;
846;SDS011;410;48.954;9.474;2023-02-28T03:28:19;6.35;;;4.97;;
846;SDS011;410;48.954;9.474;2023-02-28T03:30:29;5.93;;;5.22;;
846;SDS011;410;48.954;9.474;2023-02-28T03:32:38;7.60;;;5.40;;
846;SDS011;410;48.954;9.474;2023-02-28T03:34:46;8.82;;;5.90;;
846;SDS011;410;48.954;9.474;2023-02-28T03:36:53;7.70;;;5.20;;
846;SDS011;410;48.954;9.474;2023-02-28T03:38:59;7.57;;;5.43;;
846;SDS011;410;48.954;9.474;2023-02-28T03:41:09;6.82;;;4.95;;
846;SDS011;410;48.954;9.474;2023-02-28T03:43:18;8.05;;;4.70;;
846;SDS011;410;48.954;9.474;2023-02-28T03:45:24;8.55;;;5.70;;
846;SDS011;410;48.954;9.474;2023-02-28T03:47:29;6.00;;;4.85;;
846;SDS011;410;48.954;9.474;2023-02-28T03:49:36;7.47;;;5.97;;
846;SDS011;410;48.954;9.474;2023-02-28T03:51:44;7.53;;;5.70;;
846;SDS011;410;48.954;9.474;2023-02-28T03:53:52;8.18;;;5.60;;
846;SDS011;410;48.954;9.474;2023-02-28T03:55:57;6.95;;;4.80;;
846;SDS011;410;48.954;9.474;2023-02-28T03:58:04;7.85;;;5.18;;
846;SDS011;410;48.954;9.474;2023-02-28T04:00:12;7.00;;;5.32;;
846;SDS011;410;48.954;9.474;2023-02-28T04:02:18;7.43;;;5.60;;
846;SDS011;410;48.954;9.474;2023-02-28T04:04:21;6.88;;;5.72;;
846;SDS011;410;48.954;9.474;2023-02-28T04:06:24;7.55;;;5.43;;
846;SDS011;410;48.954;9.474;2023-02-28T04:08:28;7.82;;;5.65;;
846;SDS011;410;48.954;9.474;2023-02-28T04:10:33;11.00;;;5.90;;
846;SDS011;410;48.954;9.474;2023-02-28T04:12:36;5.57;;;4.97;;
846;SDS011;410;48.954;9.474;2023-02-28T04:14:39;8.02;;;5.55;;
846;SDS011;410;48.954;9.474;2023-02-28T04:16:42;7.35;;;5.60;;
846;SDS011;410;48.954;9.474;2023-02-28T04:18:46;9.27;;;5.78;;
846;SDS011;410;48.954;9.474;2023-02-28T04:20:49;7.22;;;5.82;;
846;SDS011;410;48.954;9.474;2023-02-28T04:22:52;6.43;;;5.50;;
846;SDS011;410;48.954;9.474;2023-02-28T04:24:55;8.35;;;6.15;;
846;SDS011;410;48.954;9.474;2023-02-28T04:27:00;7.82;;;5.72;;
846;SDS011;410;48.954;9.474;2023-02-28T04:29:03;9.00;;;6.45;;
846;SDS011;410;48.954;9.474;2023-02-28T04:31:08;9.70;;;6.72;;
846;SDS011;410;48.954;9.474;2023-02-28T04:33:12;9.77;;;6.15;;
846;SDS011;410;48.954;9.474;2023-02-28T04:35:15;7.22;;;5.47;;
846;SDS011;410;48.954;9.474;2023-02-28T04:37:18;7.57;;;5.85;;
846;SDS011;410;48.954;9.474;2023-02-28T04:39:23;7.95;;;6.35;;
846;SDS011;410;48.954;9.474;2023-02-28T04:41:28;8.32;;;6.35;;
846;SDS011;410;48.954;9.474;2023-02-28T04:43:34;8.48;;;6.00;;
846;SDS011;410;48.954;9.474;2023-02-28T04:45:38;9.20;;;5.97;;
846;SDS011;410;48.954;9.474;2023-02-28T04:47:41;7.38;;;5.57;;
846;SDS011;410;48.954;9.474;2023-02-28T04:49:44;7.30;;;5.60;;
846;SDS011;410;48.954;9.474;2023-02-28T04:51:47;8.48;;;5.90;;
846;SDS011;410;48.954;9.474;2023-02-28T04:53:51;8.55;;;6.10;;
846;SDS011;410;48.954;9.474;2023-02-28T04:55:55;8.07;;;5.95;;
846;SDS011;410;48.954;9.474;2023-02-28T04:57:58;9.05;;;6.55;;
846;SDS011;410;48.954;9.474;2023-02-28T05:00:03;9.52;;;6.40;;
846;SDS011;410;48.954;9.474;2023-02-28T05:02:14;10.43;;;6.53;;
846;SDS011;410;48.954;9.474;2023-02-28T05:04:17;10.05;;;7.47;;
846;SDS011;410;48.954;9.474;2023-02-28T05:06:21;9.05;;;6.60;;
846;SDS011;410;48.954;9.474;2023-02-28T05:08:25;8.32;;;6.10;;
846;SDS011;410;48.954;9.474;2023-02-28T05:10:31;8.07;;;6.35;;
846;SDS011;410;48.954;9.474;2023-02-28T05:12:34;12.98;;;6.95;;
846;SDS011;410;48.954;9.474;2023-02-28T05:14:37;8.15;;;6.20;;
846;SDS011;410;48.954;9.474;2023-02-28T05:16:41;11.98;;;6.88;;
846;SDS011;410;48.954;9.474;2023-02-28T05:18:45;8.30;;;6.63;;
846;SDS011;410;48.954;9.474;2023-02-28T05:20:48;9.63;;;6.65;;
846;SDS011;410;48.954;9.474;2023-02-28T05:22:51;10.10;;;5.85;;
846;SDS011;410;48.954;9.474;2023-02-28T05:24:55;9.07;;;6.38;;
846;SDS011;410;48.954;9.474;2023-02-28T05:26:58;8.98;;;6.22;;
846;SDS011;410;48.954;9.474;2023-02-28T05:29:01;9.45;;;7.05;;
846;SDS011;410;48.954;9.474;2023-02-28T05:31:04;9.00;;;6.50;;
846;SDS011;410;48.954;9.474;2023-02-28T05:33:11;11.10;;;7.38;;
846;SDS011;410;48.954;9.474;2023-02-28T05:35:14;8.52;;;6.30;;
846;SDS011;410;48.954;9.474;2023-02-28T05:37:17;9.38;;;6.78;;
846;SDS011;410;48.954;9.474;2023-02-28T05:39:23;11.27;;;6.75;;
846;SDS011;410;48.954;9.474;2023-02-28T05:41:26;10.68;;;6.70;;
846;SDS011;410;48.954;9.474;2023-02-28T05:43:30;9.50;;;6.65;;
846;SDS011;410;48.954;9.474;2023-02-28T05:45:33;7.90;;;6.32;;
846;SDS011;410;48.954;9.474;2023-02-28T05:47:36;9.95;;;6.90;;
846;SDS011;410;48.954;9.474;2023-02-28T05:49:41;9.63;;;6.55;;
846;SDS011;410;48.954;9.474;2023-02-28T05:51:44;8.40;;;6.32;;
846;SDS011;410;48.954;9.474;2023-02-28T05:53:47;10.13;;;6.00;;
846;SDS011;410;48.954;9.474;2023-02-28T05:55:51;13.02;;;8.68;;
846;SDS011;410;48.954;9.474;2023-02-28T05:57:56;10.38;;;8.18;;
846;SDS011;410;48.954;9.474;2023-02-28T05:59:59;11.63;;;8.70;;
846;SDS011;410;48.954;9.474;2023-02-28T06:02:13;9.95;;;7.07;;
846;SDS011;410;48.954;9.474;2023-02-28T06:04:18;10.20;;;7.18;;
846;SDS011;410;48.954;9.474;2023-02-28T06:06:33;11.95;;;7.65;;
846;SDS011;410;48.954;9.474;2023-02-28T06:08:37;11.00;;;7.10;;
846;SDS011;410;48.954;9.474;2023-02-28T06:10:41;13.70;;;8.57;;
846;SDS011;410;48.954;9.474;2023-02-28T06:12:44;12.60;;;7.90;;
846;SDS011;410;48.954;9.474;2023-02-28T06:14:47;12.88;;;6.90;;
846;SDS011;410;48.954;9.474;2023-02-28T06:16:50;11.30;;;6.57;;
846;SDS011;410;48.954;9.474;2023-02-28T06:18:54;10.40;;;7.50;;
846;SDS011;410;48.954;9.474;2023-02-28T06:20:59;8.15;;;6.63;;
846;SDS011;410;48.954;9.474;2023-02-28T06:23:03;9.32;;;6.65;;
846;SDS011;410;48.954;9.474;2023-02-28T06:25:07;10.63;;;6.85;;
846;SDS011;410;48.954;9.474;2023-02-28T06:27:11;11.13;;;8.20;;
846;SDS011;410;48.954;9.474;2023-02-28T06:29:14;8.50;;;6.78;;
846;SDS011;410;48.954;9.474;2023-02-28T06:31:18;14.27;;;8.15;;
846;SDS011;410;48.954;9.474;2023-02-28T06:33:22;11.82;;;8.35;;
846;SDS011;410;48.954;9.474;2023-02-28T06:35:25;12.02;;;8.25;;
846;SDS011;410;48.954;9.474;2023-02-28T06:37:28;21.58;;;10.93;;
846;SDS011;410;48.954;9.474;2023-02-28T06:39:34;9.57;;;7.40;;
846;SDS011;410;48.954;9.474;2023-02-28T06:41:37;10.75;;;7.55;;
846;SDS011;410;48.954;9.474;2023-02-28T06:43:56;9.95;;;7.60;;
846;SDS011;410;48.954;9.474;2023-02-28T06:45:59;10.15;;;7.70;;
846;SDS011;410;48.954;9.474;2023-02-28T06:48:03;12.95;;;8.00;;
846;SDS011;410;48.954;9.474;2023-02-28T06:50:09;11.27;;;7.82;;
846;SDS011;410;48.954;9.474;2023-02-28T06:52:13;12.57;;;7.30;;
846;SDS011;410;48.954;9.474;2023-02-28T06:54:16;15.52;;;8.02;;
846;SDS011;410;48.954;9.474;2023-02-28T06:56:21;9.57;;;7.47;;
846;SDS011;410;48.954;9.474;2023-02-28T06:58:24;10.18;;;7.72;;
846;SDS011;410;48.954;9.474;2023-02-28T07:00:27;12.38;;;8.32;;
846;SDS011;410;48.954;9.474;2023-02-28T07:02:30;13.30;;;8.32;;
846;SDS011;410;48.954;9.474;2023-02-28T07:04:34;11.85;;;8.32;;
846;SDS011;410;48.954;9.474;2023-02-28T07:06:37;11.43;;;7.85;;
846;SDS011;410;48.954;9.474;2023-02-28T07:08:40;9.70;;;7.85;;
846;SDS011;410;48.954;9.474;2023-02-28T07:10:43;11.70;;;8.20;;
846;SDS011;410;48.954;9.474;2023-02-28T07:12:48;12.07;;;8.02;;
846;SDS011;410;48.954;9.474;2023-02-28T07:14:52;9.73;;;7.45;;
846;SDS011;410;48.954;9.474;2023-02-28T07:16:57;11.65;;;8.38;;
846;SDS011;410;48.954;9.474;2023-02-28T07:19:00;11.85;;;7.35;;
846;SDS011;410;48.954;9.474;2023-02-28T07:21:04;10.68;;;7.43;;
846;SDS011;410;48.954;9.474;2023-02-28T07:23:08;10.65;;;8.07;;
846;SDS011;410;48.954;9.474;2023-02-28T07:25:11;12.80;;;7.55;;
846;SDS011;410;48.954;9.474;2023-02-28T07:27:14;12.40;;;8.20;;
846;SDS011;410;48.954;9.474;2023-02-28T07:29:26;12.15;;;8.50;;
846;SDS011;410;48.954;9.474;2023-02-28T07:31:30;12.20;;;9.07;;
846;SDS011;410;48.954;9.474;2023-02-28T07:33:33;9.88;;;8.23;;
846;SDS011;410;48.954;9.474;2023-02-28T07:35:36;12.40;;;7.85;;
846;SDS011;410;48.954;9.474;2023-02-28T07:37:39;11.40;;;7.97;;
846;SDS011;410;48.954;9.474;2023-02-28T07:39:43;10.23;;;7.85;;
846;SDS011;410;48.954;9.474;2023-02-28T07:41:46;12.65;;;8.85;;
846;SDS011;410;48.954;9.474;2023-02-28T07:43:49;11.85;;;7.40;;
846;SDS011;410;48.954;9.474;2023-02-28T07:45:54;10.77;;;8.05;;
846;SDS011;410;48.954;9.474;2023-02-28T07:47:57;11.27;;;8.00;;
846;SDS011;410;48.954;9.474;2023-02-28T07:50:00;11.15;;;8.60;;
846;SDS011;410;48.954;9.474;2023-02-28T07:52:04;10.85;;;8.57;;
846;SDS011;410;48.954;9.474;2023-02-28T07:54:07;11.48;;;8.45;;
846;SDS011;410;48.954;9.474;2023-02-28T07:56:10;10.88;;;8.20;;
846;SDS011;410;48.954;9.474;2023-02-28T07:58:14;12.77;;;8.18;;
846;SDS011;410;48.954;9.474;2023-02-28T08:00:17;9.60;;;7.55;;
846;SDS011;410;48.954;9.474;2023-02-28T08:02:22;12.57;;;8.15;;
846;SDS011;410;48.954;9.474;2023-02-28T08:04:26;12.00;;;9.23;;
846;SDS011;410;48.954;9.474;2023-02-28T08:06:29;15.13;;;8.30;;
846;SDS011;410;48.954;9.474;2023-02-28T08:08:32;11.48;;;8.52;;
846;SDS011;410;48.954;9.474;2023-02-28T08:10:36;12.43;;;8.52;;
846;SDS011;410;48.954;9.474;2023-02-28T08:12:39;13.38;;;9.50;;
846;SDS011;410;48.954;9.474;2023-02-28T08:14:42;11.85;;;8.57;;
846;SDS011;410;48.954;9.474;2023-02-28T08:16:45;12.82;;;9.18;;
846;SDS011;410;48.954;9.474;2023-02-28T08:18:50;11.57;;;8.80;;
846;SDS011;410;48.954;9.474;2023-02-28T08:20:54;12.57;;;8.50;;
846;SDS011;410;48.954;9.474;2023-02-28T08:22:58;12.50;;;9.40;;
846;SDS011;410;48.954;9.474;2023-02-28T08:25:01;14.52;;;9.63;;
846;SDS011;410;48.954;9.474;2023-02-28T08:27:04;14.18;;;9.85;;
846;SDS011;410;48.954;9.474;2023-02-28T08:29:07;13.23;;;8.93;;
846;SDS011;410;48.954;9.474;2023-02-28T08:31:11;13.90;;;9.32;;
846;SDS011;410;48.954;9.474;2023-02-28T08:33:15;12.80;;;8.98;;
846;SDS011;410;48.954;9.474;2023-02-28T08:35:20;12.88;;;8.88;;
846;SDS011;410;48.954;9.474;2023-02-28T08:37:23;11.48;;;8.75;;
846;SDS011;410;48.954;9.474;2023-02-28T08:39:26;12.20;;;8.85;;
846;SDS011;410;48.954;9.474;2023-02-28T08:41:30;11.90;;;9.05;;
846;SDS011;410;48.954;9.474;2023-02-28T08:43:33;11.75;;;9.23;;
846;SDS011;410;48.954;9.474;2023-02-28T08:45:36;12.18;;;9.07;;
846;SDS011;410;48.954;9.474;2023-02-28T08:47:40;11.70;;;8.90;;
846;SDS011;410;48.954;9.474;2023-02-28T08:49:43;13.57;;;9.82;;
846;SDS011;410;48.954;9.474;2023-02-28T08:51:47;13.30;;;9.15;;
846;SDS011;410;48.954;9.474;2023-02-28T08:53:50;13.50;;;10.23;;
846;SDS011;410;48.954;9.474;2023-02-28T08:55:56;13.38;;;8.70;;
846;SDS011;410;48.954;9.474;2023-02-28T08:58:00;11.80;;;9.20;;
846;SDS011;410;48.954;9.474;2023-02-28T09:00:04;12.35;;;9.80;;
846;SDS011;410;48.954;9.474;2023-02-28T09:02:09;14.10;;;8.85;;
846;SDS011;410;48.954;9.474;2023-02-28T09:04:15;15.20;;;10.20;;
846;SDS011;410;48.954;9.474;2023-02-28T09:06:22;11.10;;;9.30;;
846;SDS011;410;48.954;9.474;2023-02-28T09:08:28;14.55;;;9.45;;
846;SDS011;410;48.954;9.474;2023-02-28T09:10:32;12.60;;;9.45;;
846;SDS011;410;48.954;9.474;2023-02-28T09:12:35;14.55;;;10.02;;
846;SDS011;410;48.954;9.474;2023-02-28T09:14:39;12.82;;;9.75;;
846;SDS011;410;48.954;9.474;2023-02-28T09:16:42;10.77;;;9.30;;
846;SDS011;410;48.954;9.474;2023-02-28T09:18:45;13.15;;;9.43;;
846;SDS011;410;48.954;9.474;2023-02-28T09:20:48;11.45;;;9.20;;
846;SDS011;410;48.954;9.474;2023-02-28T09:22:52;12.27;;;9.27;;
846;SDS011;410;48.954;9.474;2023-02-28T09:24:57;11.10;;;8.90;;
846;SDS011;410;48.954;9.474;2023-02-28T09:27:00;13.73;;;9.70;;
846;SDS011;410;48.954;9.474;2023-02-28T09:29:06;12.43;;;9.60;;
846;SDS011;410;48.954;9.474;2023-02-28T09:31:12;12.85;;;9.70;;
846;SDS011;410;48.954;9.474;2023-02-28T09:33:17;12.30;;;8.65;;
846;SDS011;410;48.954;9.474;2023-02-28T09:35:22;13.35;;;9.93;;
846;SDS011;410;48.954;9.474;2023-02-28T09:37:28;13.73;;;10.63;;
846;SDS011;410;48.954;9.474;2023-02-28T09:39:32;13.00;;;9.13;;
846;SDS011;410;48.954;9.474;2023-02-28T09:41:38;13.90;;;10.65;;
846;SDS011;410;48.954;9.474;2023-02-28T09:43:49;12.90;;;9.00;;
846;SDS011;410;48.954;9.474;2023-02-28T09:45:55;11.55;;;9.45;;
846;SDS011;410;48.954;9.474;2023-02-28T09:48:03;13.50;;;9.48;;
846;SDS011;410;48.954;9.474;2023-02-28T09:50:15;14.32;;;10.40;;
846;SDS011;410;48.954;9.474;2023-02-28T09:52:34;11.82;;;9.35;;
846;SDS011;410;48.954;9.474;2023-02-28T09:54:37;13.23;;;9.93;;
846;SDS011;410;48.954;9.474;2023-02-28T09:56:43;12.20;;;9.60;;
846;SDS011;410;48.954;9.474;2023-02-28T09:58:46;12.65;;;9.02;;
846;SDS011;410;48.954;9.474;2023-02-28T10:00:54;11.65;;;9.30;;
846;SDS011;410;48.954;9.474;2023-02-28T10:03:05;16.35;;;9.68;;
846;SDS011;410;48.954;9.474;2023-02-28T10:05:13;10.98;;;9.15;;
846;SDS011;410;48.954;9.474;2023-02-28T10:07:21;12.60;;;9.30;;
846;SDS011;410;48.954;9.474;2023-02-28T10:09:35;12.00;;;8.98;;
846;SDS011;410;48.954;9.474;2023-02-28T10:11:39;15.20;;;9.95;;
846;SDS011;410;48.954;9.474;2023-02-28T10:13:48;11.50;;;8.98;;
846;SDS011;410;48.954;9.474;2023-02-28T10:15:55;13.40;;;8.70;;
846;SDS011;410;48.954;9.474;2023-02-28T10:18:03;12.38;;;10.43;;
846;SDS011;410;48.954;9.474;2023-02-28T10:20:11;13.45;;;9.65;;
846;SDS011;410;48.954;9.474;2023-02-28T10:22:16;13.60;;;9.63;;
846;SDS011;410;48.954;9.474;2023-02-28T10:24:23;13.68;;;10.35;;
846;SDS011;410;48.954;9.474;2023-02-28T10:26:31;15.05;;;10.88;;
846;SDS011;410;48.954;9.474;2023-02-28T10:28:35;13.35;;;9.07;;
846;SDS011;410;48.954;9.474;2023-02-28T10:30:40;11.20;;;8.90;;
846;SDS011;410;48.954;9.474;2023-02-28T10:32:47;13.15;;;9.75;;
846;SDS011;410;48.954;9.474;2023-02-28T10:34:55;11.73;;;8.80;;
846;SDS011;410;48.954;9.474;2023-02-28T10:37:00;11.18;;;8.98;;
846;SDS011;410;48.954;9.474;2023-02-28T10:41:36;14.38;;;10.98;;
846;SDS011;410;48.954;9.474;2023-02-28T10:43:44;12.73;;;9.75;;
846;SDS011;410;48.954;9.474;2023-02-28T10:45:57;12.23;;;9.98;;
846;SDS011;410;48.954;9.474;2023-02-28T10:48:03;12.27;;;9.07;;
846;SDS011;410;48.954;9.474;2023-02-28T10:50:09;12.13;;;9.43;;
846;SDS011;410;48.954;9.474;2023-02-28T10:52:33;12.95;;;9.55;;
846;SDS011;410;48.954;9.474;2023-02-28T10:54:40;10.98;;;9.88;;
846;SDS011;410;48.954;9.474;2023-02-28T10:56:43;11.45;;;9.32;;
846;SDS011;410;48.954;9.474;2023-02-28T10:58:47;12.20;;;10.30;;
846;SDS011;410;48.954;9.474;2023-02-28T11:00:52;12.85;;;9.85;;
846;SDS011;410;48.954;9.474;2023-02-28T11:02:57;12.23;;;9.63;;
846;SDS011;410;48.954;9.474;2023-02-28T11:05:00;12.25;;;9.77;;
846;SDS011;410;48.954;9.474;2023-02-28T11:07:04;12.93;;;10.40;;
846;SDS011;410;48.954;9.474;2023-02-28T11:09:15;16.27;;;9.57;;
846;SDS011;410;48.954;9.474;2023-02-28T11:11:22;11.13;;;9.65;;
846;SDS011;410;48.954;9.474;2023-02-28T11:13:31;11.48;;;9.07;;
846;SDS011;410;48.954;9.474;2023-02-28T11:15:36;18.48;;;11.93;;
846;SDS011;410;48.954;9.474;2023-02-28T11:17:39;34.90;;;18.83;;
846;SDS011;410;48.954;9.474;2023-02-28T11:19:45;12.15;;;9.93;;
846;SDS011;410;48.954;9.474;2023-02-28T11:21:52;13.13;;;9.80;;
846;SDS011;410;48.954;9.474;2023-02-28T11:23:58;22.63;;;14.60;;
846;SDS011;410;48.954;9.474;2023-02-28T11:26:05;14.55;;;10.13;;
846;SDS011;410;48.954;9.474;2023-02-28T11:28:22;14.18;;;10.70;;
846;SDS011;410;48.954;9.474;2023-02-28T11:30:34;11.65;;;9.88;;
846;SDS011;410;48.954;9.474;2023-02-28T11:32:39;12.73;;;9.45;;
846;SDS011;410;48.954;9.474;2023-02-28T11:35:01;13.98;;;9.88;;
846;SDS011;410;48.954;9.474;2023-02-28T11:37:08;14.32;;;9.63;;
846;SDS011;410;48.954;9.474;2023-02-28T11:39:14;15.07;;;9.57;;
846;SDS011;410;48.954;9.474;2023-02-28T11:41:30;12.18;;;8.75;;
846;SDS011;410;48.954;9.474;2023-02-28T11:43:46;28.60;;;15.93;;
846;SDS011;410;48.954;9.474;2023-02-28T11:46:13;12.15;;;9.15;;
846;SDS011;410;48.954;9.474;2023-02-28T11:48:23;11.43;;;9.95;;
846;SDS011;410;48.954;9.474;2023-02-28T11:52:55;12.95;;;10.07;;
846;SDS011;410;48.954;9.474;2023-02-28T11:55:01;11.82;;;9.60;;
846;SDS011;410;48.954;9.474;2023-02-28T11:57:15;12.20;;;10.02;;
846;SDS011;410;48.954;9.474;2023-02-28T11:59:31;10.68;;;9.05;;
846;SDS011;410;48.954;9.474;2023-02-28T12:01:45;11.57;;;9.80;;
846;SDS011;410;48.954;9.474;2023-02-28T12:04:03;11.32;;;8.95;;
846;SDS011;410;48.954;9.474;2023-02-28T12:06:18;11.68;;;9.05;;
846;SDS011;410;48.954;9.474;2023-02-28T12:08:26;14.38;;;9.65;;
846;SDS011;410;48.954;9.474;2023-02-28T12:10:42;11.00;;;8.82;;
846;SDS011;410;48.954;9.474;2023-02-28T12:12:55;10.48;;;9.10;;
846;SDS011;410;48.954;9.474;2023-02-28T12:15:13;11.10;;;9.27;;
846;SDS011;410;48.954;9.474;2023-02-28T12:17:37;12.43;;;10.40;;
846;SDS011;410;48.954;9.474;2023-02-28T12:19:47;14.98;;;9.05;;
846;SDS011;410;48.954;9.474;2023-02-28T12:22:02;13.25;;;9.60;;
846;SDS011;410;48.954;9.474;2023-02-28T12:24:31;10.82;;;8.80;;
846;SDS011;410;48.954;9.474;2023-02-28T12:26:43;12.30;;;9.63;;
846;SDS011;410;48.954;9.474;2023-02-28T12:28:47;12.90;;;10.35;;
846;SDS011;410;48.954;9.474;2023-02-28T12:30:53;12.38;;;9.85;;
846;SDS011;410;48.954;9.474;2023-02-28T12:33:01;11.90;;;9.25;;
846;SDS011;410;48.954;9.474;2023-02-28T12:35:06;11.93;;;9.10;;
846;SDS011;410;48.954;9.474;2023-02-28T12:37:17;14.00;;;9.30;;
846;SDS011;410;48.954;9.474;2023-02-28T12:39:25;12.32;;;9.68;;
846;SDS011;410;48.954;9.474;2023-02-28T12:41:34;11.15;;;9.10;;
846;SDS011;410;48.954;9.474;2023-02-28T12:43:41;12.32;;;9.32;;
846;SDS011;410;48.954;9.474;2023-02-28T12:45:48;13.10;;;10.90;;
846;SDS011;410;48.954;9.474;2023-02-28T12:47:55;12.35;;;9.60;;
846;SDS011;410;48.954;9.474;2023-02-28T12:50:02;12.75;;;11.00;;
846;SDS011;410;48.954;9.474;2023-02-28T12:52:08;12.88;;;10.05;;
846;SDS011;410;48.954;9.474;2023-02-28T12:54:19;11.10;;;9.88;;
846;SDS011;410;48.954;9.474;2023-02-28T12:56:28;13.63;;;10.55;;
846;SDS011;410;48.954;9.474;2023-02-28T12:58:37;13.60;;;10.63;;
846;SDS011;410;48.954;9.474;2023-02-28T13:00:46;11.98;;;9.60;;
846;SDS011;410;48.954;9.474;2023-02-28T13:03:07;11.48;;;9.52;;
846;SDS011;410;48.954;9.474;2023-02-28T13:08:07;17.15;;;10.32;;
846;SDS011;410;48.954;9.474;2023-02-28T13:10:42;12.68;;;10.63;;
846;SDS011;410;48.954;9.474;2023-02-28T13:12:47;13.07;;;10.15;;
846;SDS011;410;48.954;9.474;2023-02-28T13:15:00;14.63;;;10.73;;
846;SDS011;410;48.954;9.474;2023-02-28T13:17:11;11.32;;;9.20;;
846;SDS011;410;48.954;9.474;2023-02-28T13:19:16;13.73;;;10.70;;
846;SDS011;410;48.954;9.474;2023-02-28T13:21:24;11.07;;;9.43;;
846;SDS011;410;48.954;9.474;2023-02-28T13:23:40;12.15;;;9.10;;
846;SDS011;410;48.954;9.474;2023-02-28T13:26:01;14.45;;;10.63;;
846;SDS011;410;48.954;9.474;2023-02-28T13:28:08;11.82;;;9.38;;
846;SDS011;410;48.954;9.474;2023-02-28T13:32:45;11.30;;;9.30;;
846;SDS011;410;48.954;9.474;2023-02-28T13:37:41;11.80;;;9.98;;
846;SDS011;410;48.954;9.474;2023-02-28T13:39:48;11.35;;;10.15;;
846;SDS011;410;48.954;9.474;2023-02-28T13:41:53;11.95;;;10.25;;